Time;durP1;ratioP1;P1;durP2;ratioP2;P2;SDS_P1;SDS_P2;PMS_P1;PMS_P2;Temp;Humidity;BMP_temperature;BMP_pressure;BME280_temperature;BME280_humidity;BME280_pressure;Samples;Min_cycle;Max_cycle;Signal;HPM_P1;HPM_P2
2022/01/28 00:00:18;;;;;;;5.72;0.65;;;5.40;25.80;;;;;;10208109;28;84942;-59
2022/01/28 00:05:21;;;;;;;3.20;0.68;;;5.40;18.00;;;;;;10188273;28;84764;-60
2022/01/28 00:10:25;;;;;;;3.15;0.50;;;5.50;1.00;;;;;;10238220;28;84678;-58
2022/01/28 00:15:54;;;;;;;3.88;0.65;;;5.40;1.00;;;;;;10250821;28;84966;-58
2022/01/28 00:41:44;;;;;;;1.45;0.43;;;5.20;1.00;;;;;;10248274;28;84934;-56
2022/01/28 00:46:45;;;;;;;4.32;0.70;;;5.10;1.00;;;;;;10244723;28;86484;-58
2022/01/28 00:51:46;;;;;;;4.60;0.85;;;5.10;1.00;;;;;;10244594;28;84171;-59
2022/01/28 00:56:47;;;;;;;4.47;0.77;;;5.10;1.00;;;;;;10229884;28;84936;-59
2022/01/28 01:01:47;;;;;;;3.10;0.30;;;5.10;2.60;;;;;;10204224;28;84194;-60
2022/01/28 01:06:48;;;;;;;1.55;0.40;;;5.10;12.70;;;;;;10204505;28;84201;-59
2022/01/28 01:11:49;;;;;;;3.22;0.38;;;5.10;25.60;;;;;;10203506;28;84118;-59
2022/01/28 01:22:18;;;;;;;5.40;0.28;;;5.10;1.00;;;;;;10188237;28;85221;-57
2022/01/28 01:27:20;;;;;;;5.43;0.95;;;5.10;9.00;;;;;;10211088;28;84935;-60
2022/01/28 01:32:21;;;;;;;3.30;0.73;;;5.10;1.00;;;;;;10209289;28;86888;-57
2022/01/28 01:37:21;;;;;;;5.75;0.77;;;5.10;1.00;;;;;;10209981;28;83999;-59
2022/01/28 01:53:11;;;;;;;3.85;1.05;;;5.30;1.00;;;;;;10211947;28;84108;-58
2022/01/28 01:58:11;;;;;;;4.93;0.60;;;5.20;1.00;;;;;;10209547;28;84954;-56
2022/01/28 02:03:12;;;;;;;1.17;0.38;;;5.10;1.00;;;;;;10192911;28;85043;-59
2022/01/28 02:08:13;;;;;;;3.38;0.70;;;5.00;1.00;;;;;;10170457;28;84938;-57
2022/01/28 02:13:13;;;;;;;3.35;0.82;;;5.00;1.00;;;;;;10169658;28;84021;-57
2022/01/28 02:18:14;;;;;;;0.93;0.38;;;5.00;1.00;;;;;;10170046;28;85081;-58
2022/01/28 02:23:15;;;;;;;0.47;0.10;;;4.90;1.00;;;;;;10170451;28;84690;-58
2022/01/28 02:28:20;;;;;;;2.47;0.55;;;4.90;1.00;;;;;;10169898;28;84977;-59
2022/01/28 02:33:24;;;;;;;6.82;0.75;;;4.90;1.00;;;;;;10170460;28;84030;-59
2022/01/28 02:38:25;;;;;;;4.05;0.50;;;4.80;1.00;;;;;;10167819;28;86030;-59
2022/01/28 02:49:00;;;;;;;4.13;0.57;;;4.80;81.80;;;;;;10169182;28;86306;-59
2022/01/28 02:54:12;;;;;;;6.95;1.30;;;4.80;99.90;;;;;;10172669;28;84028;-58
2022/01/28 02:59:13;;;;;;;5.57;0.75;;;4.70;99.90;;;;;;10169725;28;85829;-57
2022/01/28 03:04:41;;;;;;;5.25;0.60;;;4.70;99.90;;;;;;10195190;28;84892;-58
2022/01/28 03:09:51;;;;;;;3.03;0.50;;;4.70;99.90;;;;;;10233829;22;85163;-47
2022/01/28 03:19:55;;;;;;;5.60;0.40;;;4.60;99.90;;;;;;10321610;28;84904;-51
2022/01/28 03:24:58;;;;;;;9.88;0.73;;;4.60;99.90;;;;;;10289858;28;84960;-50
2022/01/28 03:29:58;;;;;;;1.40;0.35;;;4.70;91.00;;;;;;10287950;28;84215;-50
2022/01/28 03:34:59;;;;;;;2.65;0.93;;;4.80;37.80;;;;;;10288282;28;84033;-47
2022/01/28 03:40:01;;;;;;;5.15;0.57;;;4.90;11.20;;;;;;10287524;28;85195;-51
2022/01/28 03:45:03;;;;;;;3.65;0.65;;;5.00;1.00;;;;;;10287607;28;84100;-44
2022/01/28 03:50:04;;;;;;;1.40;0.70;;;5.10;1.00;;;;;;10285662;28;86887;-47
2022/01/28 03:55:06;;;;;;;3.83;0.80;;;5.10;1.00;;;;;;10285530;28;84575;-49
2022/01/28 04:00:08;;;;;;;15.30;1.50;;;5.20;1.00;;;;;;10278334;28;84921;-44
2022/01/28 04:20:58;;;;;;;5.22;1.00;;;5.30;1.00;;;;;;10286922;28;84939;-47
2022/01/28 04:25:59;;;;;;;4.25;0.57;;;5.30;1.00;;;;;;10286876;28;84150;-48
2022/01/28 04:31:00;;;;;;;2.92;0.60;;;5.20;1.00;;;;;;10286546;28;84133;-46
2022/01/28 04:36:00;;;;;;;8.88;0.82;;;5.20;1.00;;;;;;10284089;28;87266;-53
2022/01/28 04:46:15;;;;;;;2.97;0.65;;;5.10;1.00;;;;;;10286641;28;84937;-50
2022/01/28 04:51:44;;;;;;;8.00;0.88;;;5.10;1.00;;;;;;10286227;28;84206;-48
2022/01/28 04:56:57;;;;;;;4.80;0.80;;;5.20;1.00;;;;;;10284463;28;84317;-47
2022/01/28 05:28:03;;;;;;;7.28;0.88;;;5.10;26.70;;;;;;10284044;28;84287;-49
2022/01/28 05:33:04;;;;;;;4.43;0.47;;;5.10;36.20;;;;;;10281311;28;85112;-52
2022/01/28 05:38:04;;;;;;;3.38;0.68;;;5.10;40.50;;;;;;10284466;28;84282;-49
2022/01/28 05:43:05;;;;;;;7.00;0.75;;;5.10;44.90;;;;;;10283580;28;84846;-47
2022/01/28 05:48:06;;;;;;;3.13;0.90;;;5.00;84.60;;;;;;10281409;28;84309;-50
2022/01/28 05:53:07;;;;;;;3.83;0.93;;;5.10;34.80;;;;;;10282968;28;85103;-51
2022/01/28 05:58:08;;;;;;;2.22;0.60;;;5.10;26.30;;;;;;10282218;28;86607;-48
2022/01/28 06:03:09;;;;;;;2.55;0.88;;;5.20;23.70;;;;;;10279706;28;85977;-50
2022/01/28 06:08:10;;;;;;;3.10;0.65;;;5.20;34.40;;;;;;10284314;28;85409;-49
2022/01/28 06:13:11;;;;;;;11.50;1.30;;;5.20;36.50;;;;;;10290309;28;85119;-52
2022/01/28 06:18:12;;;;;;;5.22;0.98;;;5.20;8.90;;;;;;10289986;28;85744;-53
2022/01/28 06:23:13;;;;;;;1.52;0.80;;;5.30;1.00;;;;;;10287914;28;84244;-51
2022/01/28 06:28:13;;;;;;;3.55;0.75;;;5.40;1.00;;;;;;10290659;28;84226;-53
2022/01/28 06:33:14;;;;;;;3.88;0.80;;;5.40;1.00;;;;;;10288587;28;84530;-49
2022/01/28 06:38:15;;;;;;;6.68;0.38;;;5.40;1.00;;;;;;10290705;28;84037;-50
2022/01/28 06:43:16;;;;;;;9.70;1.25;;;5.50;1.00;;;;;;10290731;28;86851;-48
2022/01/28 06:48:18;;;;;;;4.57;0.90;;;5.50;1.00;;;;;;10284695;28;84934;-56
2022/01/28 06:53:19;;;;;;;7.72;1.55;;;5.50;1.00;;;;;;10283574;28;84885;-52
2022/01/28 06:58:20;;;;;;;7.43;0.95;;;5.60;1.00;;;;;;10289458;28;85191;-48
2022/01/28 07:03:20;;;;;;;4.95;1.05;;;5.70;1.00;;;;;;10289901;28;84705;-54
2022/01/28 07:08:23;;;;;;;3.67;0.70;;;5.70;1.00;;;;;;10289815;28;84956;-52
2022/01/28 07:13:23;;;;;;;1.52;0.35;;;5.70;1.00;;;;;;10289956;28;85203;-54
2022/01/28 07:18:24;;;;;;;3.03;0.73;;;5.70;1.00;;;;;;10288200;28;86045;-49
2022/01/28 07:23:25;;;;;;;6.25;0.98;;;5.60;1.00;;;;;;10288285;28;84068;-49
2022/01/28 07:28:26;;;;;;;8.38;1.23;;;5.60;1.00;;;;;;10288913;28;84233;-55
2022/01/28 07:33:27;;;;;;;11.43;1.77;;;5.60;1.00;;;;;;10288665;28;84585;-51
2022/01/28 07:38:27;;;;;;;15.13;1.30;;;5.60;1.00;;;;;;10287387;28;85004;-49
2022/01/28 07:43:28;;;;;;;6.88;0.73;;;5.60;1.00;;;;;;10288159;28;84310;-51
2022/01/28 07:48:28;;;;;;;7.13;1.00;;;5.60;1.00;;;;;;10285747;28;86126;-51
2022/01/28 07:53:29;;;;;;;6.75;1.38;;;5.60;1.00;;;;;;10286539;28;84873;-52
2022/01/28 07:58:30;;;;;;;7.75;1.52;;;5.70;1.00;;;;;;10287640;28;84984;-55
2022/01/28 08:03:31;;;;;;;9.05;0.93;;;5.70;1.00;;;;;;10288511;28;84916;-57
2022/01/28 08:08:31;;;;;;;5.38;0.95;;;5.70;1.00;;;;;;10286521;28;85978;-52
2022/01/28 08:13:32;;;;;;;9.77;1.40;;;5.70;1.00;;;;;;10287588;28;84401;-61
2022/01/28 08:18:33;;;;;;;4.82;0.77;;;5.70;1.00;;;;;;10287490;28;84080;-65
2022/01/28 08:23:35;;;;;;;7.43;2.00;;;5.80;1.00;;;;;;10287015;28;85132;-60
2022/01/28 08:28:37;;;;;;;4.57;0.70;;;5.80;1.00;;;;;;10287153;28;84262;-59
2022/01/28 08:33:38;;;;;;;3.47;0.85;;;5.80;1.00;;;;;;10287014;28;84271;-56
2022/01/28 08:38:44;;;;;;;1.77;0.82;;;5.80;1.00;;;;;;10287248;28;84079;-60
2022/01/28 08:43:45;;;;;;;7.05;1.05;;;5.80;1.00;;;;;;10286863;28;84178;-57
2022/01/28 08:48:45;;;;;;;10.48;0.85;;;5.80;1.00;;;;;;10285425;28;86859;-51
2022/01/28 08:53:46;;;;;;;4.10;1.23;;;5.90;1.00;;;;;;10286464;28;84260;-50
2022/01/28 08:58:47;;;;;;;11.07;0.90;;;5.90;1.00;;;;;;10285691;28;84917;-50
2022/01/28 09:03:49;;;;;;;9.60;1.50;;;6.00;1.00;;;;;;10284831;28;85949;-54
2022/01/28 09:08:53;;;;;;;4.55;1.02;;;6.00;1.00;;;;;;10285151;28;84248;-61
2022/01/28 09:13:55;;;;;;;6.75;1.10;;;6.10;1.00;;;;;;10264119;22;85081;-62
2022/01/28 09:18:56;;;;;;;9.57;1.30;;;6.10;1.00;;;;;;10246351;28;84003;-64
2022/01/28 09:23:56;;;;;;;13.18;1.23;;;6.20;1.00;;;;;;10246620;28;84359;-59
2022/01/28 09:28:58;;;;;;;9.23;1.70;;;6.40;1.00;;;;;;10244689;28;84741;-53
2022/01/28 09:33:59;;;;;;;8.95;1.65;;;6.50;1.00;;;;;;10245215;28;84368;-56
2022/01/28 09:39:00;;;;;;;6.13;0.95;;;6.50;1.00;;;;;;10243282;28;85875;-64
2022/01/28 09:44:02;;;;;;;5.10;0.95;;;6.40;1.00;;;;;;10246785;28;84879;-60
2022/01/28 09:49:03;;;;;;;11.82;1.48;;;6.50;1.00;;;;;;10252130;28;84956;-62
2022/01/28 09:54:04;;;;;;;5.43;1.25;;;6.40;1.00;;;;;;10253933;28;84895;-63
2022/01/28 09:59:05;;;;;;;6.50;0.80;;;6.50;1.00;;;;;;10273643;28;84002;-62
2022/01/28 10:04:07;;;;;;;15.35;1.50;;;6.70;1.00;;;;;;10264060;28;84088;-62
2022/01/28 10:09:09;;;;;;;12.70;1.00;;;6.80;1.00;;;;;;10255711;28;84124;-62
2022/01/28 10:14:14;;;;;;;13.35;1.67;;;6.90;1.00;;;;;;10257424;28;84345;-52
2022/01/28 10:19:14;;;;;;;7.03;1.20;;;7.10;1.00;;;;;;10255807;28;84126;-61
2022/01/28 10:24:20;;;;;;;8.77;1.45;;;7.20;1.00;;;;;;10251219;28;85457;-57
2022/01/28 10:29:32;;;;;;;7.72;1.45;;;7.50;1.00;;;;;;10248607;28;84875;-59
2022/01/28 10:34:47;;;;;;;8.85;1.23;;;8.20;1.00;;;;;;10253260;28;84070;-56
2022/01/28 10:39:51;;;;;;;11.38;1.65;;;9.00;99.90;;;;;;10246135;28;84851;-62
2022/01/28 10:44:56;;;;;;;14.00;1.77;;;9.70;5.80;;;;;;10249781;28;84299;-52
2022/01/28 10:49:57;;;;;;;6.03;1.13;;;10.10;1.00;;;;;;10249462;28;84344;-56
2022/01/28 10:54:58;;;;;;;4.13;1.00;;;10.20;1.00;;;;;;10247987;28;84125;-54
2022/01/28 11:00:02;;;;;;;9.13;1.10;;;10.00;1.00;;;;;;10247613;28;84226;-54
2022/01/28 11:05:03;;;;;;;7.70;1.50;;;10.30;1.00;;;;;;10246468;28;84484;-52
2022/01/28 11:10:04;;;;;;;5.72;1.63;;;10.70;1.00;;;;;;10247056;28;84319;-53
2022/01/28 11:15:05;;;;;;;6.35;1.40;;;11.10;1.00;;;;;;10247983;28;84025;-52
2022/01/28 11:20:07;;;;;;;8.05;1.42;;;11.10;1.00;;;;;;10247926;28;84914;-53
2022/01/28 11:25:28;;;;;;;11.55;1.90;;;10.50;1.00;;;;;;10255154;28;84918;-52
2022/01/28 11:30:29;;;;;;;12.07;1.48;;;9.70;1.00;;;;;;10250437;28;84131;-52
2022/01/28 11:35:53;;;;;;;7.32;1.55;;;9.20;1.00;;;;;;10246929;28;84876;-52
2022/01/28 11:41:10;;;;;;;4.03;1.40;;;8.80;2.70;;;;;;10236131;28;86102;-51
2022/01/28 11:46:23;;;;;;;5.65;1.52;;;8.70;99.90;;;;;;10237431;28;84233;-54
2022/01/28 11:51:35;;;;;;;6.90;1.35;;;8.60;47.40;;;;;;10245596;28;86034;-53
2022/01/28 11:57:01;;;;;;;6.18;0.85;;;8.80;67.40;;;;;;10230996;28;87320;-53
2022/01/28 12:02:02;;;;;;;7.20;1.52;;;8.70;9.50;;;;;;10245530;28;84840;-54
2022/01/28 12:07:14;;;;;;;8.80;1.52;;;8.50;38.50;;;;;;10245119;28;84163;-54
2022/01/28 12:12:47;;;;;;;9.02;1.77;;;8.50;1.00;;;;;;10245421;28;84304;-53
2022/01/28 12:17:49;;;;;;;8.35;1.20;;;8.50;1.00;;;;;;10244669;28;86663;-49
2022/01/28 12:22:59;;;;;;;7.63;1.52;;;8.50;1.00;;;;;;10243143;28;84912;-53
2022/01/28 12:28:30;;;;;;;8.05;1.42;;;8.60;1.00;;;;;;10253056;28;84895;-48
2022/01/28 12:33:37;;;;;;;6.82;1.20;;;9.00;1.00;;;;;;10245826;28;85096;-53
2022/01/28 12:39:04;;;;;;;14.35;1.98;;;9.20;1.00;;;;;;10244513;28;87030;-46
2022/01/28 12:44:05;;;;;;;9.43;1.75;;;9.10;1.00;;;;;;10244195;28;84983;-46
2022/01/28 12:49:08;;;;;;;11.23;1.27;;;9.20;1.00;;;;;;10245557;28;84933;-47
2022/01/28 12:54:09;;;;;;;7.13;1.00;;;8.60;1.00;;;;;;10245749;28;84975;-53
2022/01/28 12:59:13;;;;;;;5.95;0.70;;;8.60;1.00;;;;;;10256277;28;85044;-47
2022/01/28 13:04:16;;;;;;;4.60;1.10;;;8.80;1.00;;;;;;10247304;28;84964;-47
2022/01/28 13:09:22;;;;;;;5.38;0.75;;;8.90;1.00;;;;;;10243180;28;85000;-47
2022/01/28 13:14:34;;;;;;;7.07;1.13;;;8.80;1.00;;;;;;10244622;28;84130;-48
2022/01/28 13:19:34;;;;;;;8.45;1.40;;;9.10;1.00;;;;;;10245009;28;84836;-46
2022/01/28 13:24:35;;;;;;;5.75;1.73;;;9.00;1.00;;;;;;10249903;28;84923;-50
2022/01/28 13:29:40;;;;;;;8.77;1.40;;;8.90;1.00;;;;;;10252633;28;84754;-48
2022/01/28 13:34:58;;;;;;;8.82;1.05;;;8.60;1.00;;;;;;10252321;28;84955;-48
2022/01/28 13:40:00;;;;;;;11.27;1.70;;;8.50;1.00;;;;;;10245527;28;86017;-47
2022/01/28 13:45:04;;;;;;;8.45;1.05;;;8.40;1.00;;;;;;10243845;28;84997;-50
2022/01/28 13:50:05;;;;;;;10.55;1.20;;;8.40;1.00;;;;;;10250522;28;84153;-45
2022/01/28 13:55:35;;;;;;;8.27;1.42;;;8.50;1.00;;;;;;10250078;28;84995;-48
2022/01/28 14:00:45;;;;;;;10.98;1.30;;;8.30;1.00;;;;;;10249474;28;84224;-46
2022/01/28 14:05:54;;;;;;;9.23;1.17;;;8.30;1.00;;;;;;10249906;28;84768;-45
2022/01/28 14:10:55;;;;;;;6.72;1.10;;;8.20;1.00;;;;;;10249338;28;84910;-50
2022/01/28 14:16:04;;;;;;;6.72;0.98;;;8.10;1.00;;;;;;10248942;28;84797;-46
2022/01/28 14:21:05;;;;;;;6.05;1.27;;;8.10;1.00;;;;;;10249686;28;84951;-45
2022/01/28 14:26:06;;;;;;;14.15;2.20;;;8.10;1.00;;;;;;10250115;28;84471;-47
2022/01/28 14:31:08;;;;;;;14.10;1.75;;;8.10;18.20;;;;;;10249933;28;84000;-55
2022/01/28 14:36:09;;;;;;;10.65;1.27;;;8.00;99.90;;;;;;10248301;28;84226;-51
2022/01/28 14:41:10;;;;;;;8.80;1.95;;;8.00;99.90;;;;;;10248884;28;84886;-53
2022/01/28 14:46:11;;;;;;;6.30;0.95;;;8.00;99.90;;;;;;10250006;28;84801;-52
2022/01/28 14:51:12;;;;;;;9.98;1.85;;;7.80;99.90;;;;;;10249633;28;84975;-49
2022/01/28 14:56:13;;;;;;;6.45;1.10;;;7.80;99.90;;;;;;10244933;28;84094;-48
2022/01/28 15:01:13;;;;;;;6.30;1.33;;;7.70;99.90;;;;;;10242802;28;84346;-49
2022/01/28 15:06:15;;;;;;;6.38;1.75;;;7.80;99.90;;;;;;10248692;28;86323;-51
2022/01/28 15:11:34;;;;;;;4.05;1.10;;;7.90;99.90;;;;;;10271446;22;84274;-44
2022/01/28 15:16:35;;;;;;;4.82;0.95;;;7.90;99.90;;;;;;10246575;28;86667;-41
2022/01/28 15:21:36;;;;;;;4.38;1.20;;;7.90;99.90;;;;;;10247599;28;85057;-43
2022/01/28 15:26:37;;;;;;;5.22;1.23;;;7.90;99.90;;;;;;10248285;28;84824;-42
2022/01/28 15:36:58;;;;;;;3.63;1.30;;;7.70;99.90;;;;;;10236477;28;84984;-44
2022/01/28 15:41:59;;;;;;;4.25;1.10;;;7.60;99.90;;;;;;10239158;28;84960;-49
2022/01/28 15:47:03;;;;;;;10.00;1.20;;;7.50;99.90;;;;;;10231886;28;86711;-50
2022/01/28 15:52:05;;;;;;;6.97;1.40;;;7.40;99.90;;;;;;10287623;28;84008;-47
2022/01/28 15:57:07;;;;;;;7.72;1.55;;;7.50;99.90;;;;;;10249289;28;84819;-45
2022/01/28 16:02:08;;;;;;;6.75;1.63;;;7.50;99.90;;;;;;10271897;28;84311;-48
2022/01/28 16:07:08;;;;;;;7.40;1.50;;;7.50;99.90;;;;;;10270826;28;86114;-49
2022/01/28 16:12:18;;;;;;;5.72;1.35;;;7.50;99.90;;;;;;10244317;28;84979;-47
2022/01/28 16:17:37;;;;;;;9.00;1.27;;;7.40;99.90;;;;;;10246258;28;85755;-56
2022/01/28 16:22:37;;;;;;;11.35;2.30;;;7.30;99.90;;;;;;10243429;28;85111;-48
2022/01/28 16:27:38;;;;;;;9.57;1.77;;;7.30;99.90;;;;;;10227139;28;85170;-58
2022/01/28 16:32:39;;;;;;;8.27;1.83;;;7.20;99.90;;;;;;10244762;28;84916;-51
2022/01/28 16:37:39;;;;;;;13.63;2.33;;;7.20;99.90;;;;;;10263719;28;84760;-52
2022/01/28 16:43:02;;;;;;;7.85;1.63;;;7.10;99.90;;;;;;10259036;28;85395;-55
2022/01/28 16:48:03;;;;;;;5.30;1.42;;;7.20;99.90;;;;;;10245163;28;85271;-60
2022/01/28 16:53:04;;;;;;;8.13;1.52;;;6.90;1.00;;;;;;10247360;28;84886;-50
2022/01/28 16:58:05;;;;;;;7.35;1.52;;;6.80;1.00;;;;;;10245797;28;84040;-46
2022/01/28 17:03:06;;;;;;;10.57;2.25;;;6.70;1.00;;;;;;10245736;28;84784;-50
2022/01/28 17:08:07;;;;;;;6.85;1.33;;;6.70;1.00;;;;;;10244184;28;84313;-48
2022/01/28 17:13:10;;;;;;;7.85;2.00;;;6.70;1.00;;;;;;10242527;28;84567;-46
2022/01/28 17:18:11;;;;;;;8.27;1.33;;;6.70;1.00;;;;;;10240359;28;84961;-50
2022/01/28 17:23:12;;;;;;;11.63;1.67;;;6.50;1.00;;;;;;10239053;28;84911;-46
2022/01/28 17:28:12;;;;;;;10.50;1.90;;;6.60;1.00;;;;;;10222703;28;85085;-45
2022/01/28 17:33:13;;;;;;;9.50;2.00;;;6.50;1.00;;;;;;10220952;28;84299;-51
2022/01/28 17:38:23;;;;;;;6.07;1.58;;;6.50;1.00;;;;;;10215473;28;84955;-48
2022/01/28 17:43:24;;;;;;;7.70;1.90;;;6.50;1.00;;;;;;10219095;28;84844;-50
2022/01/28 17:48:25;;;;;;;7.20;1.63;;;6.50;1.00;;;;;;10267441;28;84247;-47
2022/01/28 17:53:26;;;;;;;3.88;1.33;;;6.40;1.00;;;;;;10245534;28;84309;-47
2022/01/28 17:58:28;;;;;;;6.65;1.27;;;6.30;1.00;;;;;;10237878;28;84162;-48
2022/01/28 18:03:28;;;;;;;6.07;1.60;;;6.40;1.00;;;;;;10249859;28;84436;-47
2022/01/28 18:08:30;;;;;;;7.43;1.42;;;6.30;1.00;;;;;;10254427;28;86026;-50
2022/01/28 18:13:32;;;;;;;6.05;1.67;;;6.30;1.00;;;;;;10253630;28;86000;-43
2022/01/28 18:18:33;;;;;;;3.20;1.08;;;6.30;1.00;;;;;;10251486;28;84049;-47
2022/01/28 18:23:34;;;;;;;8.10;2.30;;;6.40;1.00;;;;;;10253893;28;84895;-47
2022/01/28 18:28:34;;;;;;;13.68;1.92;;;6.40;1.00;;;;;;10242889;28;84205;-46
2022/01/28 18:33:35;;;;;;;10.02;2.10;;;6.40;1.00;;;;;;10249918;28;84918;-42
2022/01/28 18:38:36;;;;;;;9.63;1.83;;;6.30;1.00;;;;;;10250097;28;84297;-52
2022/01/28 18:43:38;;;;;;;6.18;1.90;;;6.40;1.00;;;;;;10240385;28;87136;-51
2022/01/28 18:48:39;;;;;;;4.40;1.73;;;6.40;1.00;;;;;;10249866;28;84291;-50
2022/01/28 18:53:40;;;;;;;9.50;2.63;;;6.40;1.00;;;;;;10251520;28;84894;-48
2022/01/28 18:58:40;;;;;;;6.07;2.50;;;6.30;1.00;;;;;;10239585;28;85374;-45
2022/01/28 19:03:41;;;;;;;7.20;2.72;;;6.20;1.00;;;;;;10256076;28;84756;-42
2022/01/28 19:08:42;;;;;;;8.27;2.88;;;6.10;1.00;;;;;;10234410;28;84653;-49
2022/01/28 19:13:42;;;;;;;6.25;2.97;;;6.10;1.00;;;;;;10244261;28;85085;-54
2022/01/28 19:18:43;;;;;;;8.68;3.15;;;6.10;1.00;;;;;;10241276;28;86947;-49
2022/01/28 19:23:44;;;;;;;8.95;4.10;;;6.10;1.00;;;;;;10248433;28;84085;-45
2022/01/28 19:28:44;;;;;;;13.55;4.57;;;6.10;1.00;;;;;;10242976;28;84981;-45
2022/01/28 19:33:45;;;;;;;14.25;5.20;;;6.10;1.00;;;;;;10253163;28;86213;-48
2022/01/28 19:38:46;;;;;;;16.08;5.20;;;6.20;1.00;;;;;;10248625;28;84028;-52
2022/01/28 19:43:46;;;;;;;15.68;6.45;;;6.10;1.00;;;;;;10248957;28;84951;-49
2022/01/28 19:48:47;;;;;;;20.40;7.65;;;6.00;1.00;;;;;;10231442;28;84302;-46
2022/01/28 19:53:48;;;;;;;19.85;8.52;;;6.00;1.00;;;;;;10230127;28;84534;-45
2022/01/28 19:58:49;;;;;;;23.33;9.07;;;6.10;24.00;;;;;;10211771;28;84378;-52
2022/01/28 20:03:50;;;;;;;27.67;11.65;;;6.10;61.30;;;;;;10212729;28;84348;-47
2022/01/28 20:08:50;;;;;;;30.88;11.95;;;6.20;95.50;;;;;;10212162;28;84578;-46
2022/01/28 20:13:51;;;;;;;36.80;14.23;;;6.20;97.60;;;;;;10219288;28;86460;-45
2022/01/28 20:18:52;;;;;;;37.60;14.20;;;6.30;99.90;;;;;;10235791;28;84946;-51
2022/01/28 20:23:53;;;;;;;40.10;15.10;;;6.30;99.90;;;;;;10234838;28;84447;-47
2022/01/28 20:28:54;;;;;;;38.35;14.98;;;6.30;99.90;;;;;;10210486;28;85223;-47
2022/01/28 20:33:55;;;;;;;38.22;15.45;;;6.30;99.90;;;;;;10209103;28;84356;-48
2022/01/28 20:38:55;;;;;;;39.58;15.20;;;6.20;99.90;;;;;;10205885;28;84267;-47
2022/01/28 20:43:56;;;;;;;31.55;11.85;;;6.30;99.90;;;;;;10206993;28;84954;-51
2022/01/28 20:48:57;;;;;;;35.20;12.50;;;6.20;99.90;;;;;;10206449;28;84803;-49
2022/01/28 20:53:57;;;;;;;28.70;11.43;;;6.20;99.90;;;;;;10255867;28;85146;-47
2022/01/28 20:58:59;;;;;;;27.15;11.13;;;6.10;99.90;;;;;;10244356;28;85153;-53
2022/01/28 21:04:00;;;;;;;28.60;10.88;;;6.10;99.90;;;;;;10247441;28;84445;-47
2022/01/28 21:09:00;;;;;;;28.45;12.07;;;6.20;99.90;;;;;;10248285;28;84185;-51
2022/01/28 21:14:01;;;;;;;26.70;10.65;;;6.20;99.90;;;;;;10261976;23;84200;-56
2022/01/28 21:19:03;;;;;;;26.17;11.35;;;6.20;99.90;;;;;;10246733;28;84973;-53
2022/01/28 21:24:04;;;;;;;27.73;10.77;;;6.20;99.90;;;;;;10234462;28;85570;-58
2022/01/28 21:29:04;;;;;;;30.63;10.98;;;6.20;99.90;;;;;;10245743;28;85103;-56
2022/01/28 21:34:05;;;;;;;27.42;11.00;;;6.20;99.90;;;;;;10244202;28;84994;-55
2022/01/28 21:39:06;;;;;;;29.73;11.93;;;6.20;99.90;;;;;;10248325;28;84233;-55
2022/01/28 21:44:07;;;;;;;31.50;11.57;;;6.30;99.90;;;;;;10257265;28;84177;-54
2022/01/28 21:49:08;;;;;;;28.70;10.50;;;6.30;99.90;;;;;;10251112;28;86757;-54
2022/01/28 21:54:09;;;;;;;30.20;12.23;;;6.40;99.90;;;;;;10229886;28;86510;-56
2022/01/28 21:59:10;;;;;;;28.10;11.05;;;6.30;99.90;;;;;;10256170;28;83981;-55
2022/01/28 22:04:10;;;;;;;37.85;13.35;;;6.20;99.90;;;;;;10255550;28;87078;-54
2022/01/28 22:09:11;;;;;;;31.60;12.55;;;6.40;99.90;;;;;;10254896;28;84128;-57
2022/01/28 22:14:11;;;;;;;35.13;11.60;;;6.40;99.90;;;;;;10250974;28;85136;-56
2022/01/28 22:19:12;;;;;;;36.15;11.80;;;6.40;99.90;;;;;;10251007;28;84155;-55
2022/01/28 22:24:13;;;;;;;41.47;13.43;;;6.40;99.90;;;;;;10252383;28;84036;-55
2022/01/28 22:29:13;;;;;;;31.95;13.10;;;6.40;99.90;;;;;;10252351;28;84823;-54
2022/01/28 22:34:14;;;;;;;37.65;13.23;;;6.40;99.90;;;;;;10250023;28;85846;-54
2022/01/28 22:39:15;;;;;;;39.05;14.70;;;6.40;99.90;;;;;;10251014;28;84371;-54
2022/01/28 22:44:15;;;;;;;33.60;12.70;;;6.40;99.90;;;;;;10251762;28;84149;-56
2022/01/28 22:49:16;;;;;;;29.38;12.20;;;6.50;99.90;;;;;;10249327;28;87061;-54
2022/01/28 22:54:17;;;;;;;40.53;13.90;;;6.50;99.90;;;;;;10251524;28;84951;-53
2022/01/28 22:59:17;;;;;;;27.98;11.80;;;6.50;99.90;;;;;;10250444;28;84731;-55
2022/01/28 23:04:18;;;;;;;32.55;12.95;;;6.50;99.90;;;;;;10250309;28;84334;-54
2022/01/28 23:09:19;;;;;;;32.42;13.00;;;6.60;99.90;;;;;;10248373;28;87055;-54
2022/01/28 23:14:20;;;;;;;30.30;11.90;;;6.50;99.90;;;;;;10249697;28;84848;-56
2022/01/28 23:19:21;;;;;;;31.25;13.02;;;6.60;99.90;;;;;;10250569;28;84288;-55
2022/01/28 23:24:21;;;;;;;33.45;13.15;;;6.60;99.90;;;;;;10249647;28;84168;-56
2022/01/28 23:29:22;;;;;;;36.58;13.45;;;6.50;99.90;;;;;;10248856;28;84832;-53
2022/01/28 23:34:23;;;;;;;34.75;13.93;;;6.70;99.90;;;;;;10249197;28;84022;-52
2022/01/28 23:39:27;;;;;;;32.00;13.55;;;6.60;99.90;;;;;;10249509;28;85028;-56
2022/01/28 23:44:28;;;;;;;31.02;11.95;;;6.60;99.90;;;;;;10249334;28;84289;-57
2022/01/28 23:49:29;;;;;;;32.80;12.18;;;6.70;99.90;;;;;;10247125;28;86867;-56
2022/01/28 23:54:29;;;;;;;32.70;13.45;;;6.70;99.90;;;;;;10248944;28;84126;-54
2022/01/28 23:59:30;;;;;;;28.55;11.70;;;6.70;99.90;;;;;;10248931;28;84953;-56
